Time;durP1;ratioP1;P1;durP2;ratioP2;P2;SDS_P1;SDS_P2;PMS_P1;PMS_P2;Temp;Humidity;BMP_temperature;BMP_pressure;BME280_temperature;BME280_humidity;BME280_pressure;Samples;Min_cycle;Max_cycle;Signal;HPM_P1;HPM_P2
2023/02/05 00:00:32;;;;;;;2.60;2.13;;;-0.50;99.90;;;;;;5025738;27;20717;-54
2023/02/05 00:02:59;;;;;;;2.37;2.17;;;-0.50;99.90;;;;;;5010958;28;20225;-51
2023/02/05 00:05:26;;;;;;;3.87;2.67;;;-0.50;99.90;;;;;;5015151;28;20253;-53
2023/02/05 00:07:53;;;;;;;4.77;2.83;;;-0.50;99.90;;;;;;5003346;28;20223;-54
2023/02/05 00:10:20;;;;;;;2.43;2.23;;;-0.50;99.90;;;;;;5010413;28;20281;-51
2023/02/05 00:12:51;;;;;;;3.37;2.53;;;-0.50;99.90;;;;;;5018165;28;20579;-52
2023/02/05 00:15:18;;;;;;;2.80;2.07;;;-0.50;99.90;;;;;;5007540;28;20233;-54
2023/02/05 00:17:45;;;;;;;3.80;2.30;;;-0.60;99.90;;;;;;5011652;28;20211;-52
2023/02/05 00:20:12;;;;;;;3.10;2.37;;;-0.60;99.90;;;;;;5015254;28;20199;-52
2023/02/05 00:22:39;;;;;;;3.37;2.20;;;-0.60;99.90;;;;;;5012386;28;21162;-50
2023/02/05 00:25:06;;;;;;;2.60;2.10;;;-0.60;99.90;;;;;;5011429;28;20233;-53
2023/02/05 00:27:34;;;;;;;2.97;2.33;;;-0.60;99.90;;;;;;5019312;28;20229;-55
2023/02/05 00:30:02;;;;;;;3.07;2.37;;;-0.60;99.90;;;;;;5011754;28;20370;-50
2023/02/05 00:32:29;;;;;;;3.53;2.60;;;-0.60;99.90;;;;;;5011979;28;20225;-55
2023/02/05 00:34:56;;;;;;;3.20;2.20;;;-0.60;99.90;;;;;;5021932;28;20261;-50
2023/02/05 00:37:23;;;;;;;3.83;2.57;;;-0.60;99.90;;;;;;5020798;28;20227;-54
2023/02/05 00:39:50;;;;;;;2.17;1.97;;;-0.70;99.90;;;;;;5021108;28;20605;-54
2023/02/05 00:42:17;;;;;;;4.07;2.30;;;-0.70;99.90;;;;;;5009369;27;20213;-50
2023/02/05 00:44:44;;;;;;;2.80;2.60;;;-0.70;99.90;;;;;;5021416;28;20236;-55
2023/02/05 00:47:33;;;;;;;3.47;2.27;;;-0.70;99.90;;;;;;5006123;27;20364;-51
2023/02/05 00:50:01;;;;;;;2.50;2.30;;;-0.70;99.90;;;;;;5020409;28;20198;-52
2023/02/05 00:52:31;;;;;;;3.20;2.30;;;-0.70;99.90;;;;;;5020596;28;20206;-53
2023/02/05 00:54:58;;;;;;;4.00;2.43;;;-0.70;99.90;;;;;;5013935;28;20725;-50
2023/02/05 00:57:25;;;;;;;2.80;2.07;;;-0.70;99.90;;;;;;5012370;27;20209;-52
2023/02/05 00:59:52;;;;;;;3.07;2.00;;;-0.70;99.90;;;;;;5021170;28;20297;-52
2023/02/05 01:02:22;;;;;;;4.63;2.37;;;-0.70;99.90;;;;;;5003857;27;20248;-52
2023/02/05 01:04:51;;;;;;;2.73;2.10;;;-0.70;99.90;;;;;;5022023;28;20222;-52
2023/02/05 01:07:20;;;;;;;2.13;1.90;;;-0.70;99.90;;;;;;5019295;28;20700;-52
2023/02/05 01:10:06;;;;;;;2.53;1.70;;;-0.70;99.90;;;;;;5020014;28;20571;-50
2023/02/05 01:12:33;;;;;;;3.90;2.13;;;-0.70;99.90;;;;;;5100984;27;20214;-53
2023/02/05 01:15:00;;;;;;;5.10;2.17;;;-0.70;99.90;;;;;;5018248;28;20306;-50
2023/02/05 01:17:27;;;;;;;4.30;2.00;;;-0.80;99.90;;;;;;5022364;27;20204;-53
2023/02/05 01:19:56;;;;;;;2.40;1.90;;;-0.80;99.90;;;;;;5024900;27;20210;-53
2023/02/05 01:22:24;;;;;;;3.93;2.13;;;-0.80;99.90;;;;;;5019655;28;20795;-53
2023/02/05 01:25:13;;;;;;;5.33;2.13;;;-0.80;99.90;;;;;;5018512;28;20229;-56
2023/02/05 01:27:40;;;;;;;1.80;1.60;;;-0.80;99.90;;;;;;5022123;28;20567;-56
2023/02/05 01:30:10;;;;;;;2.70;1.70;;;-0.80;99.90;;;;;;5012451;27;20214;-50
2023/02/05 01:32:37;;;;;;;2.20;1.97;;;-0.80;99.90;;;;;;5017263;28;20206;-52
2023/02/05 01:35:06;;;;;;;1.70;1.60;;;-0.70;99.90;;;;;;5004291;27;20216;-51
2023/02/05 01:37:33;;;;;;;4.80;1.80;;;-0.70;99.90;;;;;;5020219;28;20204;-52
2023/02/05 01:40:00;;;;;;;2.07;1.70;;;-0.70;99.90;;;;;;5019951;28;20210;-49
2023/02/05 01:42:28;;;;;;;2.37;1.80;;;-0.70;99.90;;;;;;5020231;28;21007;-52
2023/02/05 01:45:49;;;;;;;1.50;1.40;;;-0.70;99.90;;;;;;5009744;28;20232;-51
2023/02/05 01:48:18;;;;;;;2.83;1.60;;;-0.70;99.90;;;;;;4995344;28;20303;-55
2023/02/05 01:50:50;;;;;;;1.67;1.33;;;-0.70;99.90;;;;;;4954052;28;20215;-53
2023/02/05 01:53:22;;;;;;;3.93;1.50;;;-0.70;99.90;;;;;;5002536;28;20213;-54
2023/02/05 01:55:55;;;;;;;2.90;1.30;;;-0.70;99.90;;;;;;5021653;28;20230;-55
2023/02/05 01:58:24;;;;;;;4.30;1.30;;;-0.70;99.90;;;;;;5013415;28;21966;-57
2023/02/05 02:00:51;;;;;;;1.37;1.20;;;-0.70;99.90;;;;;;5021502;28;20218;-52
2023/02/05 02:03:17;;;;;;;1.17;1.07;;;-0.70;99.90;;;;;;5017938;28;20965;-55
2023/02/05 02:05:44;;;;;;;1.47;1.37;;;-0.70;99.90;;;;;;5012422;27;20731;-56
2023/02/05 02:08:14;;;;;;;2.17;1.50;;;-0.60;99.90;;;;;;5010991;28;20225;-54
2023/02/05 02:10:43;;;;;;;1.50;1.13;;;-0.60;99.90;;;;;;5020300;28;20270;-56
2023/02/05 02:13:12;;;;;;;2.80;1.10;;;-0.60;99.90;;;;;;5015927;28;20210;-50
2023/02/05 02:15:39;;;;;;;1.47;1.30;;;-0.60;99.90;;;;;;5009483;28;20236;-56
2023/02/05 02:18:27;;;;;;;2.67;1.40;;;-0.60;99.90;;;;;;5017197;28;20197;-49
2023/02/05 02:21:13;;;;;;;1.93;1.00;;;-0.50;99.90;;;;;;5001813;27;20254;-51
2023/02/05 02:23:52;;;;;;;1.73;1.60;;;-0.50;99.90;;;;;;5010632;28;20217;-55
2023/02/05 02:26:43;;;;;;;1.80;1.60;;;-0.50;99.90;;;;;;5018485;28;20213;-54
2023/02/05 02:29:17;;;;;;;1.30;1.20;;;-0.40;99.90;;;;;;5016898;28;20282;-53
2023/02/05 02:31:50;;;;;;;1.77;1.30;;;-0.40;99.90;;;;;;5013469;27;20210;-51
2023/02/05 02:34:20;;;;;;;2.90;1.23;;;-0.40;99.90;;;;;;5018702;28;20199;-50
2023/02/05 02:36:53;;;;;;;1.83;1.60;;;-0.40;99.90;;;;;;5007035;27;20590;-50
2023/02/05 02:39:25;;;;;;;1.80;1.30;;;-0.40;99.90;;;;;;5016411;28;20280;-51
2023/02/05 02:41:56;;;;;;;1.90;1.33;;;-0.30;99.90;;;;;;5018876;28;20211;-50
2023/02/05 02:44:34;;;;;;;1.60;1.50;;;-0.30;99.90;;;;;;5019549;28;20305;-53
2023/02/05 02:47:06;;;;;;;1.10;1.00;;;-0.30;99.90;;;;;;5007012;28;20212;-52
2023/02/05 02:49:38;;;;;;;2.83;1.30;;;-0.30;99.90;;;;;;5019763;28;20658;-55
2023/02/05 02:52:08;;;;;;;1.63;1.37;;;-0.20;99.90;;;;;;5017205;27;20202;-55
2023/02/05 02:54:38;;;;;;;1.80;1.40;;;-0.20;99.90;;;;;;5013401;28;20218;-53
2023/02/05 02:57:08;;;;;;;1.67;1.40;;;-0.20;99.90;;;;;;5015475;28;20198;-54
2023/02/05 02:59:39;;;;;;;1.60;1.50;;;-0.30;99.90;;;;;;5025473;27;20312;-54
2023/02/05 03:02:11;;;;;;;1.70;1.23;;;-0.20;99.90;;;;;;5011316;28;20294;-49
2023/02/05 03:04:40;;;;;;;1.20;1.10;;;-0.20;99.90;;;;;;5020326;28;20211;-53
2023/02/05 03:07:11;;;;;;;2.10;1.47;;;-0.20;99.90;;;;;;5008781;27;20281;-52
2023/02/05 03:09:45;;;;;;;2.20;1.57;;;-0.20;99.90;;;;;;5012396;27;20297;-50
2023/02/05 03:12:12;;;;;;;3.03;1.40;;;-0.20;99.90;;;;;;5018105;28;20258;-50
2023/02/05 03:14:41;;;;;;;1.40;1.30;;;-0.20;99.90;;;;;;5019282;28;20261;-54
2023/02/05 03:17:09;;;;;;;2.00;1.57;;;-0.20;99.90;;;;;;5016303;28;20800;-52
2023/02/05 03:19:36;;;;;;;1.67;1.40;;;-0.20;99.90;;;;;;5016402;28;20208;-53
2023/02/05 03:22:24;;;;;;;2.10;1.53;;;-0.20;99.90;;;;;;5010650;27;20596;-53
2023/02/05 03:24:52;;;;;;;2.47;1.40;;;-0.20;99.90;;;;;;5011018;28;20230;-48
2023/02/05 03:27:21;;;;;;;1.40;1.30;;;-0.30;99.90;;;;;;5018096;28;20188;-52
2023/02/05 03:29:50;;;;;;;3.00;1.10;;;-0.30;99.90;;;;;;5035214;27;20302;-50
2023/02/05 03:32:44;;;;;;;1.90;1.60;;;-0.30;99.90;;;;;;5022238;27;20295;-53
2023/02/05 03:35:21;;;;;;;1.97;1.40;;;-0.30;99.90;;;;;;5009131;27;20311;-52
2023/02/05 03:38:00;;;;;;;1.60;1.50;;;-0.30;99.90;;;;;;5024771;28;20202;-49
2023/02/05 03:40:36;;;;;;;1.90;1.40;;;-0.30;99.90;;;;;;5011169;28;20206;-51
2023/02/05 03:43:11;;;;;;;2.03;1.37;;;-0.30;99.90;;;;;;5014573;28;20269;-51
2023/02/05 03:45:54;;;;;;;1.53;1.43;;;-0.30;99.90;;;;;;5020418;28;20278;-53
2023/02/05 03:48:42;;;;;;;2.77;1.53;;;-0.30;99.90;;;;;;5012609;28;20240;-51
2023/02/05 03:51:23;;;;;;;3.00;1.37;;;-0.40;99.90;;;;;;5010767;28;20297;-51
2023/02/05 03:54:05;;;;;;;2.90;1.30;;;-0.40;99.90;;;;;;5044835;28;20199;-50
2023/02/05 03:56:39;;;;;;;1.60;1.50;;;-0.40;99.90;;;;;;5020609;28;20333;-53
2023/02/05 03:59:09;;;;;;;4.77;1.43;;;-0.40;99.90;;;;;;5016562;28;20278;-54
2023/02/05 04:01:37;;;;;;;2.30;1.20;;;-0.40;99.90;;;;;;5019406;28;20378;-50
2023/02/05 04:04:05;;;;;;;3.83;1.30;;;-0.40;99.90;;;;;;5010382;28;20217;-50
2023/02/05 04:06:31;;;;;;;1.87;1.30;;;-0.40;99.90;;;;;;5016006;28;20224;-52
2023/02/05 04:08:58;;;;;;;2.20;1.50;;;-0.50;99.90;;;;;;5011879;27;20211;-49
2023/02/05 04:11:26;;;;;;;1.80;1.40;;;-0.40;99.90;;;;;;5013418;28;20254;-50
2023/02/05 04:13:53;;;;;;;2.67;1.30;;;-0.40;99.90;;;;;;5020636;28;20263;-48
2023/02/05 04:16:20;;;;;;;2.17;1.40;;;-0.40;99.90;;;;;;5022807;28;20316;-50
2023/02/05 04:18:50;;;;;;;1.67;1.23;;;-0.40;99.90;;;;;;5020226;28;20332;-52
2023/02/05 04:21:17;;;;;;;2.13;1.33;;;-0.40;99.90;;;;;;5014896;28;20323;-52
2023/02/05 04:23:44;;;;;;;2.47;1.50;;;-0.40;99.90;;;;;;5022306;28;20206;-50
2023/02/05 04:26:12;;;;;;;1.70;1.60;;;-0.40;99.90;;;;;;5005709;27;20241;-52
2023/02/05 04:28:45;;;;;;;3.67;1.50;;;-0.40;99.90;;;;;;5034478;28;20214;-50
2023/02/05 04:31:34;;;;;;;2.87;1.63;;;-0.30;99.90;;;;;;5013271;28;20221;-47
2023/02/05 04:34:03;;;;;;;2.23;1.63;;;-0.30;99.90;;;;;;5021585;28;20849;-55
2023/02/05 04:36:30;;;;;;;1.10;1.00;;;-0.30;99.90;;;;;;5013573;27;20779;-50
2023/02/05 04:38:58;;;;;;;2.10;1.20;;;-0.30;99.90;;;;;;5022237;28;20679;-51
2023/02/05 04:41:25;;;;;;;1.53;1.43;;;-0.20;99.90;;;;;;5009068;27;20197;-48
2023/02/05 04:43:52;;;;;;;2.20;1.30;;;-0.20;99.90;;;;;;5016312;28;20194;-55
2023/02/05 04:46:18;;;;;;;2.53;1.57;;;-0.20;99.90;;;;;;5022497;28;20706;-51
2023/02/05 04:48:45;;;;;;;2.03;1.70;;;-0.20;99.90;;;;;;5019862;28;20225;-52
2023/02/05 04:51:14;;;;;;;1.80;1.70;;;-0.20;99.90;;;;;;5011571;28;20303;-50
2023/02/05 04:53:41;;;;;;;2.30;1.40;;;-0.20;99.90;;;;;;5021442;28;20220;-49
2023/02/05 04:56:10;;;;;;;2.53;1.80;;;-0.20;99.90;;;;;;5009323;27;20232;-54
2023/02/05 04:58:38;;;;;;;1.67;1.57;;;-0.20;99.90;;;;;;5015441;28;20289;-53
2023/02/05 05:01:24;;;;;;;2.60;1.80;;;-0.20;99.90;;;;;;5018808;28;20830;-52
2023/02/05 05:03:51;;;;;;;1.57;1.47;;;-0.20;99.90;;;;;;5021294;28;20214;-52
2023/02/05 05:06:20;;;;;;;1.60;1.40;;;-0.20;99.90;;;;;;5008856;27;20320;-54
2023/02/05 05:08:47;;;;;;;2.00;1.73;;;-0.20;99.90;;;;;;5018951;28;20550;-52
2023/02/05 05:11:15;;;;;;;1.60;1.50;;;-0.20;99.90;;;;;;5014719;27;20253;-53
2023/02/05 05:13:43;;;;;;;3.53;1.70;;;-0.20;99.90;;;;;;5034991;27;20229;-53
2023/02/05 05:16:13;;;;;;;4.53;1.60;;;-0.20;99.90;;;;;;5017827;28;20216;-53
2023/02/05 05:18:40;;;;;;;4.00;1.40;;;-0.20;99.90;;;;;;5022241;28;20210;-50
2023/02/05 05:21:08;;;;;;;2.10;1.47;;;-0.20;99.90;;;;;;5013636;27;20205;-50
2023/02/05 05:23:36;;;;;;;2.00;1.80;;;-0.10;99.90;;;;;;5015056;27;20226;-51
2023/02/05 05:26:05;;;;;;;3.23;1.87;;;-0.10;99.90;;;;;;5018759;28;20237;-51
2023/02/05 05:28:33;;;;;;;1.93;1.30;;;-0.10;99.90;;;;;;5013604;27;20217;-53
2023/02/05 05:31:06;;;;;;;1.47;1.37;;;-0.20;99.90;;;;;;5012436;27;20225;-50
2023/02/05 05:33:33;;;;;;;2.00;1.60;;;-0.10;99.90;;;;;;5021408;28;20218;-51
2023/02/05 05:36:00;;;;;;;1.53;1.43;;;-0.10;99.90;;;;;;5019949;28;20230;-50
2023/02/05 05:38:26;;;;;;;3.20;1.60;;;-0.10;99.90;;;;;;5009191;28;20189;-50
2023/02/05 05:43:48;;;;;;;1.97;1.53;;;-0.10;99.90;;;;;;5012425;27;20214;-51
2023/02/05 05:46:20;;;;;;;2.30;1.63;;;-0.10;99.90;;;;;;5011091;27;20275;-50
2023/02/05 05:48:48;;;;;;;2.33;1.80;;;0.00;99.90;;;;;;5021083;28;20202;-55
2023/02/05 05:51:14;;;;;;;1.60;1.47;;;0.00;99.90;;;;;;5018413;28;20195;-55
2023/02/05 05:53:42;;;;;;;4.93;1.80;;;0.00;99.90;;;;;;5015283;27;20199;-52
2023/02/05 05:56:10;;;;;;;3.20;1.93;;;0.00;99.90;;;;;;5010389;28;20230;-52
2023/02/05 05:58:37;;;;;;;2.93;1.90;;;0.00;99.90;;;;;;5011741;27;20218;-50
2023/02/05 06:01:08;;;;;;;1.80;1.60;;;0.00;99.90;;;;;;5007182;27;20213;-54
2023/02/05 06:03:35;;;;;;;2.10;1.53;;;0.00;99.90;;;;;;5021041;28;20556;-51
2023/02/05 06:06:04;;;;;;;2.47;1.80;;;0.00;99.90;;;;;;5009874;27;20225;-55
2023/02/05 06:08:32;;;;;;;3.00;1.80;;;0.00;99.90;;;;;;5010661;28;20227;-49
2023/02/05 06:10:58;;;;;;;1.43;1.33;;;0.00;99.90;;;;;;5007359;27;20231;-50
2023/02/05 06:13:29;;;;;;;3.90;1.50;;;0.00;99.90;;;;;;5014536;28;20207;-46
2023/02/05 06:15:57;;;;;;;2.07;1.80;;;0.00;99.90;;;;;;5006488;27;20234;-52
2023/02/05 06:18:23;;;;;;;2.67;1.70;;;0.10;99.90;;;;;;5019998;28;20209;-53
2023/02/05 06:20:51;;;;;;;4.13;1.87;;;0.10;99.90;;;;;;5018079;28;20198;-52
2023/02/05 06:23:18;;;;;;;2.37;2.07;;;0.00;99.90;;;;;;5018833;28;20219;-54
2023/02/05 06:26:06;;;;;;;3.90;1.80;;;0.00;99.90;;;;;;5011987;27;20237;-53
2023/02/05 06:28:35;;;;;;;1.30;1.20;;;0.00;99.90;;;;;;5010027;27;20210;-49
2023/02/05 06:31:02;;;;;;;2.90;1.83;;;0.00;99.90;;;;;;5005266;27;20223;-52
2023/02/05 06:33:29;;;;;;;4.30;1.60;;;0.10;99.90;;;;;;5014930;28;20732;-50
2023/02/05 06:35:55;;;;;;;1.83;1.63;;;0.10;99.90;;;;;;5016151;28;20287;-53
2023/02/05 06:38:22;;;;;;;2.73;1.80;;;0.10;99.90;;;;;;5028314;27;20564;-51
2023/02/05 06:40:50;;;;;;;2.03;1.83;;;0.10;99.90;;;;;;5001919;27;20200;-53
2023/02/05 06:43:16;;;;;;;3.50;2.00;;;0.10;99.90;;;;;;5000360;28;20207;-55
2023/02/05 06:45:44;;;;;;;4.60;1.60;;;0.10;99.90;;;;;;5023496;27;20946;-54
2023/02/05 06:48:11;;;;;;;3.50;1.67;;;0.10;99.90;;;;;;5014148;27;20219;-53
2023/02/05 06:50:38;;;;;;;5.27;2.00;;;0.10;99.90;;;;;;5009776;28;20302;-49
2023/02/05 06:53:05;;;;;;;2.03;1.70;;;0.10;99.90;;;;;;5013049;28;20204;-54
2023/02/05 06:55:32;;;;;;;1.87;1.77;;;0.10;99.90;;;;;;5005107;27;20239;-48
2023/02/05 06:57:59;;;;;;;3.07;1.93;;;0.10;99.90;;;;;;5003767;28;20292;-54
2023/02/05 07:00:26;;;;;;;2.33;1.87;;;0.10;99.90;;;;;;5016180;27;20203;-50
2023/02/05 07:02:55;;;;;;;3.00;1.83;;;0.20;99.90;;;;;;5005876;27;20207;-50
2023/02/05 07:05:22;;;;;;;2.47;1.70;;;0.10;99.90;;;;;;5017568;28;20231;-52
2023/02/05 07:07:50;;;;;;;1.80;1.70;;;0.10;99.90;;;;;;5013842;28;20207;-53
2023/02/05 07:10:17;;;;;;;2.07;1.87;;;0.10;99.90;;;;;;5010928;28;20226;-51
2023/02/05 07:12:44;;;;;;;3.37;2.03;;;0.10;99.90;;;;;;4999851;28;20203;-53
2023/02/05 07:15:11;;;;;;;4.27;1.90;;;0.10;99.90;;;;;;5015985;28;20231;-51
2023/02/05 07:17:39;;;;;;;2.50;2.00;;;0.10;99.90;;;;;;5005722;27;20225;-52
2023/02/05 07:20:08;;;;;;;2.90;1.73;;;0.20;99.90;;;;;;5016100;28;20219;-55
2023/02/05 07:22:35;;;;;;;3.70;1.93;;;0.10;99.90;;;;;;5015554;28;20200;-51
2023/02/05 07:25:02;;;;;;;3.03;1.90;;;0.10;99.90;;;;;;5010276;28;20226;-53
2023/02/05 07:27:30;;;;;;;2.47;1.50;;;0.20;99.90;;;;;;5006839;28;20221;-50
2023/02/05 07:29:58;;;;;;;2.10;1.87;;;0.20;99.90;;;;;;5007399;28;20215;-52
2023/02/05 07:32:25;;;;;;;3.43;1.90;;;0.20;99.90;;;;;;5003801;27;20667;-52
2023/02/05 07:34:52;;;;;;;1.97;1.87;;;0.20;99.90;;;;;;5011543;28;20222;-51
2023/02/05 07:37:20;;;;;;;7.07;1.80;;;0.20;99.90;;;;;;5009197;28;20195;-56
2023/02/05 07:39:47;;;;;;;4.17;1.73;;;0.20;99.90;;;;;;5012247;28;20585;-51
2023/02/05 07:42:14;;;;;;;3.20;1.93;;;0.30;99.90;;;;;;5008386;28;20204;-54
2023/02/05 07:44:48;;;;;;;1.87;1.77;;;0.30;99.90;;;;;;5000687;28;20226;-52
2023/02/05 07:47:16;;;;;;;2.80;2.10;;;0.30;99.90;;;;;;5001601;27;20218;-56
2023/02/05 07:49:42;;;;;;;2.17;1.90;;;0.30;99.90;;;;;;5016105;28;20223;-49
2023/02/05 07:52:10;;;;;;;3.00;1.93;;;0.30;99.90;;;;;;5006156;28;20927;-52
2023/02/05 07:54:38;;;;;;;3.27;2.10;;;0.30;99.90;;;;;;5007504;28;20210;-54
2023/02/05 07:57:27;;;;;;;2.30;2.20;;;0.40;99.90;;;;;;5012790;28;20210;-51
2023/02/05 07:59:54;;;;;;;2.03;1.93;;;0.40;99.90;;;;;;5003791;28;20202;-51
2023/02/05 08:02:21;;;;;;;2.50;1.90;;;0.40;99.90;;;;;;5010356;28;20217;-57
2023/02/05 08:04:47;;;;;;;2.93;2.20;;;0.40;99.90;;;;;;5005392;28;21702;-48
2023/02/05 08:07:14;;;;;;;3.53;2.20;;;0.40;99.90;;;;;;5007627;28;20204;-55
2023/02/05 08:09:43;;;;;;;2.83;2.00;;;0.40;99.90;;;;;;5011235;28;20206;-48
2023/02/05 08:12:09;;;;;;;2.70;2.27;;;0.40;99.90;;;;;;5005924;28;20206;-52
2023/02/05 08:14:37;;;;;;;2.37;1.93;;;0.40;99.90;;;;;;5011158;28;20211;-52
2023/02/05 08:17:05;;;;;;;3.73;2.43;;;0.40;99.90;;;;;;5003658;28;21244;-51
2023/02/05 08:19:33;;;;;;;3.03;2.40;;;0.40;99.90;;;;;;5004916;28;20272;-54
2023/02/05 08:21:59;;;;;;;3.20;2.17;;;0.50;99.90;;;;;;5012426;28;20207;-51
2023/02/05 08:24:26;;;;;;;2.50;1.77;;;0.40;99.90;;;;;;5011561;28;20569;-57
2023/02/05 08:26:54;;;;;;;2.90;2.13;;;0.50;99.90;;;;;;5014306;28;20206;-50
2023/02/05 08:29:21;;;;;;;4.23;2.10;;;0.50;99.90;;;;;;5012084;28;20214;-56
2023/02/05 08:31:47;;;;;;;3.30;2.10;;;0.50;99.90;;;;;;5011851;28;20234;-49
2023/02/05 08:34:15;;;;;;;2.07;1.83;;;0.60;99.90;;;;;;5016667;28;20208;-57
2023/02/05 08:36:43;;;;;;;2.20;2.00;;;0.60;99.90;;;;;;5027622;27;20250;-49
2023/02/05 08:39:09;;;;;;;2.70;1.80;;;0.60;99.90;;;;;;5010695;28;20950;-55
2023/02/05 08:41:37;;;;;;;3.10;2.13;;;0.60;99.90;;;;;;5009637;28;20207;-55
2023/02/05 08:44:05;;;;;;;2.43;1.80;;;0.70;99.90;;;;;;5007656;28;23074;-56
2023/02/05 08:46:34;;;;;;;2.30;2.07;;;0.70;99.90;;;;;;5011945;28;20223;-56
2023/02/05 08:49:02;;;;;;;3.13;2.03;;;0.70;99.90;;;;;;5008368;28;20199;-57
2023/02/05 08:51:28;;;;;;;2.73;2.17;;;0.80;99.90;;;;;;5037058;27;20633;-53
2023/02/05 08:53:55;;;;;;;3.03;2.00;;;0.80;99.90;;;;;;5009327;28;20534;-51
2023/02/05 08:56:45;;;;;;;3.10;2.47;;;0.80;99.90;;;;;;5021732;28;20233;-52
2023/02/05 08:59:13;;;;;;;2.53;2.17;;;0.80;99.90;;;;;;5027348;27;20766;-57
2023/02/05 09:01:42;;;;;;;6.53;2.37;;;0.90;99.90;;;;;;5041240;27;20238;-55
2023/02/05 09:04:12;;;;;;;3.07;2.23;;;0.90;99.90;;;;;;5011663;28;20284;-53
2023/02/05 09:06:39;;;;;;;1.97;1.77;;;0.90;99.90;;;;;;5011154;28;20595;-54
2023/02/05 09:09:06;;;;;;;4.67;2.10;;;1.00;99.90;;;;;;5012382;28;20191;-57
2023/02/05 09:11:32;;;;;;;2.30;2.10;;;1.00;99.90;;;;;;5016372;28;20226;-54
2023/02/05 09:13:59;;;;;;;2.80;2.00;;;1.00;99.90;;;;;;5010812;28;20287;-53
2023/02/05 09:16:28;;;;;;;5.57;2.33;;;1.10;99.90;;;;;;5012157;28;20231;-56
2023/02/05 09:18:55;;;;;;;2.10;2.00;;;1.20;99.90;;;;;;5010302;28;20298;-52
2023/02/05 09:21:22;;;;;;;2.30;2.10;;;1.20;99.90;;;;;;5005398;27;20216;-56
2023/02/05 09:23:49;;;;;;;3.50;1.97;;;1.30;99.90;;;;;;5011919;28;20215;-52
2023/02/05 09:26:16;;;;;;;3.17;2.20;;;1.30;99.90;;;;;;5013584;28;20215;-55
2023/02/05 09:28:43;;;;;;;3.10;2.00;;;1.40;99.90;;;;;;5016870;28;20206;-53
2023/02/05 09:31:14;;;;;;;2.90;2.07;;;1.40;99.90;;;;;;5008268;27;20333;-56
2023/02/05 09:33:44;;;;;;;2.57;2.37;;;1.40;99.90;;;;;;5014194;28;20691;-50
2023/02/05 09:36:14;;;;;;;3.57;2.50;;;1.40;99.90;;;;;;5002634;27;20324;-55
2023/02/05 09:38:41;;;;;;;2.47;2.23;;;1.50;99.90;;;;;;5034836;27;20200;-53
2023/02/05 09:41:11;;;;;;;2.70;2.20;;;1.50;99.90;;;;;;5012485;28;20195;-52
2023/02/05 09:43:47;;;;;;;2.93;1.97;;;1.60;99.90;;;;;;5012782;28;20207;-53
2023/02/05 09:46:20;;;;;;;2.80;2.43;;;1.60;99.90;;;;;;5005116;27;20239;-55
2023/02/05 09:48:52;;;;;;;2.60;2.40;;;1.70;99.90;;;;;;5012680;28;20207;-51
2023/02/05 09:51:25;;;;;;;2.73;2.33;;;1.70;99.90;;;;;;5017840;27;20311;-53
2023/02/05 09:53:57;;;;;;;2.17;1.93;;;1.70;99.90;;;;;;5011656;28;20200;-52
2023/02/05 09:56:26;;;;;;;3.13;2.20;;;1.70;99.90;;;;;;5015562;28;20583;-54
2023/02/05 09:58:56;;;;;;;2.33;2.13;;;1.60;99.90;;;;;;5010451;28;20218;-52
2023/02/05 10:01:35;;;;;;;2.53;2.33;;;1.70;99.90;;;;;;5010306;28;20196;-53
2023/02/05 10:04:06;;;;;;;4.27;2.47;;;1.70;99.90;;;;;;5001023;27;20196;-55
2023/02/05 10:07:04;;;;;;;3.40;2.13;;;1.80;99.90;;;;;;5012676;28;20306;-57
2023/02/05 10:09:47;;;;;;;3.37;2.30;;;1.70;99.90;;;;;;5020729;28;20682;-52
2023/02/05 10:12:23;;;;;;;3.07;2.30;;;1.70;99.90;;;;;;5011513;28;20379;-50
2023/02/05 10:15:03;;;;;;;2.63;2.30;;;1.80;99.90;;;;;;5010914;28;20225;-51
2023/02/05 10:17:41;;;;;;;4.40;2.53;;;1.80;99.90;;;;;;5014921;28;20218;-53
2023/02/05 10:20:30;;;;;;;2.90;2.63;;;1.80;99.90;;;;;;5007992;27;20215;-54
2023/02/05 10:23:11;;;;;;;2.70;2.10;;;1.90;99.90;;;;;;5004212;28;20667;-52
2023/02/05 10:25:49;;;;;;;4.77;2.40;;;1.90;99.90;;;;;;5018964;28;20602;-57
2023/02/05 10:28:28;;;;;;;3.57;2.30;;;1.90;99.90;;;;;;5018981;28;20202;-56
2023/02/05 10:31:03;;;;;;;5.40;2.80;;;2.00;99.90;;;;;;5016126;27;20219;-52
2023/02/05 10:33:44;;;;;;;2.63;2.43;;;2.00;99.90;;;;;;5010685;28;20202;-56
2023/02/05 10:36:13;;;;;;;5.70;2.33;;;2.10;99.90;;;;;;5010733;28;20313;-57
2023/02/05 10:38:43;;;;;;;2.63;2.43;;;2.10;99.90;;;;;;5019108;28;20200;-54
2023/02/05 10:41:16;;;;;;;4.93;3.23;;;2.20;99.90;;;;;;5010565;27;20192;-55
2023/02/05 10:43:48;;;;;;;2.57;2.37;;;2.20;99.90;;;;;;5015092;28;20202;-49
2023/02/05 10:46:16;;;;;;;5.03;2.57;;;2.30;99.90;;;;;;5010618;27;20368;-55
2023/02/05 10:48:46;;;;;;;4.50;2.77;;;2.40;99.90;;;;;;5018354;28;20206;-53
2023/02/05 10:51:16;;;;;;;4.30;2.40;;;2.40;99.90;;;;;;5005533;28;20232;-55
2023/02/05 10:53:43;;;;;;;4.60;2.93;;;2.50;99.90;;;;;;5017954;28;20335;-50
2023/02/05 10:56:16;;;;;;;7.47;2.50;;;2.50;99.90;;;;;;5023100;27;20227;-56
2023/02/05 10:58:52;;;;;;;2.97;2.67;;;2.50;99.90;;;;;;5015184;28;20341;-50
2023/02/05 11:01:21;;;;;;;2.57;2.37;;;2.60;99.90;;;;;;5007590;28;20199;-54
2023/02/05 11:03:55;;;;;;;2.97;2.50;;;2.60;99.90;;;;;;5010846;28;20208;-49
2023/02/05 11:06:27;;;;;;;4.43;2.90;;;2.60;99.90;;;;;;5014486;28;20272;-53
2023/02/05 11:08:54;;;;;;;3.83;2.63;;;2.60;99.90;;;;;;5007626;28;20548;-50
2023/02/05 11:11:24;;;;;;;2.67;2.47;;;2.50;99.90;;;;;;5009147;27;20231;-53
2023/02/05 11:13:54;;;;;;;3.53;2.67;;;2.50;99.90;;;;;;5014787;28;20204;-51
2023/02/05 11:16:23;;;;;;;3.30;2.43;;;2.60;99.90;;;;;;5019545;27;20219;-54
2023/02/05 11:18:58;;;;;;;3.60;2.27;;;2.50;99.90;;;;;;5007398;28;20275;-52
2023/02/05 11:21:46;;;;;;;8.00;3.00;;;2.50;99.90;;;;;;5010425;28;20275;-56
2023/02/05 11:24:27;;;;;;;3.63;2.80;;;2.50;99.90;;;;;;5008383;27;20201;-55
2023/02/05 11:27:24;;;;;;;5.57;2.80;;;2.60;99.90;;;;;;4995880;27;20208;-51
2023/02/05 11:29:51;;;;;;;4.20;2.47;;;2.60;99.90;;;;;;5010866;28;20195;-53
2023/02/05 11:32:19;;;;;;;5.93;3.50;;;2.60;99.90;;;;;;5009434;28;20213;-54
2023/02/05 11:34:46;;;;;;;3.27;2.60;;;2.70;99.90;;;;;;5012688;28;20204;-50
2023/02/05 11:37:18;;;;;;;2.90;2.60;;;2.70;99.90;;;;;;5017359;27;20272;-56
2023/02/05 11:39:46;;;;;;;3.27;2.30;;;2.80;99.90;;;;;;5022861;27;20207;-52
2023/02/05 11:42:19;;;;;;;3.00;2.70;;;2.70;99.90;;;;;;5010440;28;20185;-51
2023/02/05 11:44:49;;;;;;;3.87;2.73;;;2.70;99.90;;;;;;5005466;28;20228;-53
2023/02/05 11:47:24;;;;;;;3.80;2.83;;;2.80;99.90;;;;;;5008657;28;20189;-52
2023/02/05 11:49:52;;;;;;;6.20;3.60;;;2.80;99.90;;;;;;5006795;28;20214;-54
2023/02/05 11:52:27;;;;;;;2.83;2.37;;;2.80;99.90;;;;;;5009762;28;20238;-51
2023/02/05 11:54:54;;;;;;;4.50;2.60;;;2.90;99.90;;;;;;5015546;27;20696;-51
2023/02/05 11:57:32;;;;;;;5.00;3.03;;;2.90;99.90;;;;;;5034126;28;20204;-51
2023/02/05 12:00:01;;;;;;;2.67;2.43;;;2.90;99.90;;;;;;5011806;28;20227;-52
2023/02/05 12:02:34;;;;;;;3.27;2.53;;;2.90;99.90;;;;;;5018739;27;20215;-54
2023/02/05 12:05:18;;;;;;;5.53;3.00;;;3.00;99.90;;;;;;5004330;28;20216;-49
2023/02/05 12:07:51;;;;;;;4.07;2.97;;;3.00;99.90;;;;;;5012771;28;20200;-52
2023/02/05 12:10:25;;;;;;;5.50;3.10;;;3.00;99.90;;;;;;5010237;28;20291;-52
2023/02/05 12:13:02;;;;;;;3.87;2.80;;;3.10;99.90;;;;;;5017150;28;20705;-50
2023/02/05 12:15:36;;;;;;;5.23;3.27;;;3.10;99.90;;;;;;5009189;28;20230;-51
2023/02/05 12:18:14;;;;;;;6.57;2.97;;;3.10;99.90;;;;;;5009137;28;20909;-52
2023/02/05 12:20:50;;;;;;;8.43;2.77;;;3.10;99.90;;;;;;5011591;28;20215;-54
2023/02/05 12:23:41;;;;;;;5.03;3.27;;;3.20;99.90;;;;;;5016665;28;20212;-54
2023/02/05 12:26:27;;;;;;;4.23;2.60;;;3.20;99.90;;;;;;5012824;28;20272;-54
2023/02/05 12:29:08;;;;;;;3.40;2.60;;;3.20;99.90;;;;;;5016997;28;20206;-53
2023/02/05 12:31:51;;;;;;;3.00;2.40;;;3.20;99.90;;;;;;5012317;27;20242;-56
2023/02/05 12:34:26;;;;;;;4.23;2.70;;;3.20;99.90;;;;;;5021368;28;20503;-56
2023/02/05 12:37:08;;;;;;;3.60;2.60;;;3.20;99.90;;;;;;5013495;27;20649;-50
2023/02/05 12:39:43;;;;;;;3.30;3.00;;;3.20;99.90;;;;;;5017822;28;20667;-52
2023/02/05 12:42:21;;;;;;;5.20;2.70;;;3.20;99.90;;;;;;5013458;28;20274;-56
2023/02/05 12:44:59;;;;;;;7.90;2.70;;;3.20;99.90;;;;;;5021625;28;20227;-50
2023/02/05 12:47:44;;;;;;;4.73;3.17;;;3.20;99.90;;;;;;5012386;27;20474;-57
2023/02/05 12:50:26;;;;;;;2.77;2.57;;;3.30;99.90;;;;;;5010718;27;21310;-54
2023/02/05 12:53:05;;;;;;;5.03;2.90;;;3.30;99.90;;;;;;5019621;28;20224;-53
2023/02/05 12:55:45;;;;;;;4.57;2.47;;;3.40;99.90;;;;;;5020314;28;20225;-56
2023/02/05 12:58:15;;;;;;;5.03;2.70;;;3.40;99.90;;;;;;5009992;28;20304;-56
2023/02/05 13:00:49;;;;;;;4.73;2.80;;;3.40;99.90;;;;;;5021752;28;20207;-54
2023/02/05 13:03:25;;;;;;;8.77;3.33;;;3.40;99.90;;;;;;5020472;27;20211;-56
2023/02/05 13:05:56;;;;;;;4.23;2.57;;;3.40;99.90;;;;;;5018217;27;20780;-50
2023/02/05 13:08:38;;;;;;;4.60;2.50;;;3.30;99.90;;;;;;5018386;28;20676;-52
2023/02/05 13:11:31;;;;;;;6.83;2.60;;;3.30;99.90;;;;;;5009946;27;20232;-53
2023/02/05 13:14:03;;;;;;;2.93;2.63;;;3.20;99.90;;;;;;5012651;28;20204;-51
2023/02/05 13:16:37;;;;;;;5.10;2.70;;;3.20;99.90;;;;;;5022870;28;20238;-54